x

La Perouse Bank (46206) Wave Buoy

12:00 - Mon 20th Oct 2014 All times are PDT. -7 hours from GMT.

  • Sig Wave height 13.1ft
  • Peak Period 10s
  • Wind
    13mph, 18mph gusts
  • Sea Temp 55°f
  • Air Temp 56°f
  • Sea Pressure 1002.1mb
  • La Perouse Bank
  • La Perouse Bank

More Historic Weather Station data

Upgrade to MSW Pro to gain access to the past 30 days of data for over 8000 Wavebouys and Weather Stations around the globe.

Join Pro

Comparision Forecast

View Surf forecast
   
lun. 10/20 12:00 13ft 10s 13 18 mph 1002.1mb 55f 56f
dim. 10/19 11:00 14ft 10s 18 20 mph 1002.1mb 56f 56f
10:00 14ft 11s 16 20 mph 1002.6mb 56f 57f
7:00 14ft 12s 20 31 mph 1002.1mb 56f 57f
6:00 13.5ft 11s 18 22 mph 1002.1mb 56f 58f
5:00 13.5ft 12s 18 22 mph 1002.2mb 56f 57f
4:00 14.5ft 10s 16 20 mph 1001.6mb 56f 57f
3:00 15.5ft 11s 20 25 mph 1000.9mb 56f 57f
2:00 17ft 8s 13 18 mph 1000.5mb 56f 57f
1:00 16.5ft 10s 22 29 mph 1000.5mb 55f 59f
12:00 16.5ft 9s 31 38 mph 999.9mb 55f 58f
11:00 15ft 11s 34 40 mph 999.4mb 55f 58f
10:00 14ft 11s 34 40 mph 999.4mb 55f 59f
9:00 13ft 10s 31 38 mph 999.7mb 55f 59f
8:00 13ft 11s 31 38 mph 999.7mb 55f 59f
7:00 13ft 11s 29 36 mph 1000.2mb 55f 58f
6:00 12ft 10s 29 34 mph 1000.9mb 55f 58f
5:00 12ft 10s 27 34 mph 1002.1mb 55f 58f
4:00 11ft 10s 25 29 mph 1003.1mb 55f 58f
3:00 11ft 10s 20 22 mph 1004.1mb 55f 58f
2:00 10.5ft 10s 22 27 mph 1004.6mb 55f 58f
1:00 10ft 10s 22 27 mph 1004.5mb 55f 58f
12:00 10ft 10s 25 29 mph 1005.3mb 55f 58f
sam. 10/18 11:00 9ft 10s 22 27 mph 1005.7mb 55f 58f
10:00 9ft 10s 25 29 mph 1006.2mb 55f 57f
9:00 8ft 8s 25 31 mph 1006.3mb 55f 58f
8:00 9ft 10s 22 27 mph 1007.1mb 55f 57f
7:00 9.5ft 10s 25 29 mph 1007.3mb 55f 57f
6:00 10ft 10s 25 31 mph 1008.1mb 55f 57f
5:00  -   -  20
mph
- - -
4:00 9.5ft 10s 20 25 mph 1009.8mb 55f 57f
3:00 10ft 10s 20 22 mph 1010.3mb 55f 58f
2:00 10ft 10s 18 20 mph 1010.5mb 55f 57f
1:00 10ft 10s 16 20 mph 1010.6mb 55f 57f
12:00 10ft 11s 16 18 mph 1010.5mb 55f 57f
11:00 10.5ft 10s 13 18 mph 1010.3mb 55f 56f
10:00 9ft 11s 18 22 mph 1009.8mb 55f 57f
9:00 10ft 11s 16 20 mph 1009.4mb 55f 57f
8:00 10ft 11s 13 18 mph 1008.7mb 55f 57f
7:00 10.5ft 11s 16 20 mph 1008.3mb 55f 56f
6:00 10ft 10s 13 16 mph 1008.5mb 55f 56f
5:00 11.5ft 11s 13 16 mph 1008.4mb 55f 56f
4:00 10.5ft 11s 11 13 mph 1008.3mb 54f 56f
3:00 12ft 11s 7 9 mph 1009mb 55f 56f
2:00 12.5ft 10s 7 9 mph 1008.8mb 54f 56f
1:00 13ft 11s 7 9 mph 1008.1mb 55f 56f
12:00 13ft 11s 9 11 mph 1007.5mb 55f 56f
ven. 10/17 10:00 12.5ft 10s 9 11 mph 1005.6mb 55f 56f
9:00 13ft 11s 11 16 mph 1004.4mb 55f 58f
8:00 14ft 11s 16 20 mph 1003.3mb 55f 58f
7:00 13.5ft 11s 18 22 mph 1002.1mb 55f 58f
6:00 14ft 11s 16 20 mph 1001.4mb 56f 58f
5:00 15.5ft 11s 18 22 mph 1000.7mb 56f 57f
4:00 15ft 11s 25 34 mph 1000.2mb 56f 57f
3:00  -   -  27
mph
999.5mb - 57f
2:00  -   -  29
mph
999.2mb - 57f
1:00 18.5ft 12s 34 40 mph 999mb 55f 57f
12:00 18.5ft 11s 36 47 mph 998.7mb 55f 57f
11:00 17.5ft 12s 31 40 mph 998.2mb 55f 56f
10:00 16ft 12s 31 38 mph 998.7mb 55f 56f
9:00 17.5ft 12s 31 38 mph 999.7mb 55f 56f
8:00 17.5ft 12s 34 43 mph 1000.2mb 55f 56f
7:00 16.5ft 12s 34 40 mph 1000.5mb 55f 56f
6:00 16ft 11s 36 45 mph 1000.8mb 55f 55f
5:00 15.5ft 12s 34 43 mph 1001.3mb 55f 56f
4:00 15ft 11s 34 45 mph 1001.8mb 54f 55f
3:00  -   -  34
mph
1002.9mb - 56f
2:00 12.5ft 10s 29 36 mph 1003.8mb 54f 56f
1:00 13ft 10s 29 34 mph 1004.2mb 54f 56f
12:00 11ft 10s 29 36 mph 1004.9mb 54f 56f
jeu. 10/16 11:00 10ft 8s 27 34 mph 1005.1mb 54f 56f
10:00 9.5ft 9s 27 31 mph 1005.8mb 54f 57f
9:00 9ft 8s 27 31 mph 1006.3mb 54f 57f
8:00  -   -  25
mph
1007.1mb - 57f
7:00 10.5ft 8s 25 29 mph 1007.8mb 54f 57f
6:00 9.5ft 8s 25 29 mph 1008.3mb 55f 58f
5:00 10ft 8s 22 27 mph 1009mb 55f 56f
4:00 9.5ft 8s 27 31 mph 1009.3mb 55f 56f
3:00 9ft 7s 27 34 mph 1010mb 54f 55f
2:00 9ft 7s 27 36 mph 1010.4mb 54f 56f
1:00 9ft 6s 27 36 mph 1011.3mb 54f 55f
12:00 8.5ft 12s 27 34 mph 1011.8mb 54f 55f
11:00 8ft 11s 27 31 mph 1012mb 54f 55f
10:00 8ft 11s 27 31 mph 1012.1mb 54f 56f
9:00 7ft 11s 27 31 mph 1012mb 55f 55f